createdAt,value
2022-08-04T13:40:55.070Z,2.95
2022-08-04T13:44:18.033Z,2.40
2022-08-04T13:46:57.612Z,3.08
2022-08-04T13:49:43.074Z,3.00
2022-08-04T13:52:18.942Z,2.75
2022-08-04T13:54:53.493Z,2.67
2022-08-04T13:57:33.771Z,2.92
2022-08-04T14:00:10.838Z,4.25
2022-08-04T14:02:52.570Z,5.43
2022-08-04T14:05:29.518Z,5.68
2022-08-04T14:08:26.794Z,9.30
2022-08-04T14:11:00.491Z,8.57
2022-08-04T14:19:02.824Z,8.80
2022-08-04T14:21:39.214Z,8.57
2022-08-04T14:24:10.320Z,9.23
2022-08-04T14:26:40.684Z,9.32
2022-08-04T14:29:26.657Z,9.65
2022-08-04T14:32:14.670Z,9.85
2022-08-04T14:34:48.437Z,8.93
2022-08-04T14:37:23.473Z,7.43
2022-08-04T14:40:18.439Z,6.25
2022-08-04T14:42:55.238Z,5.45
2022-08-04T14:45:54.843Z,4.65
2022-08-04T14:48:25.797Z,5.60
2022-08-04T14:50:57.013Z,4.40
2022-08-04T14:53:29.012Z,3.97
2022-08-04T14:56:03.384Z,4.07
2022-08-04T14:58:39.200Z,4.03
2022-08-04T15:01:12.955Z,4.30
2022-08-04T15:03:49.650Z,3.70
2022-08-04T15:06:31.445Z,2.90
2022-08-04T15:09:09.230Z,3.55
2022-08-04T15:11:43.459Z,3.70
2022-08-04T15:14:18.540Z,3.47
2022-08-04T15:17:07.343Z,2.88
2022-08-04T15:19:55.702Z,3.60
2022-08-04T15:22:26.736Z,3.08
2022-08-04T15:24:57.417Z,3.22
2022-08-04T15:27:31.429Z,3.17
2022-08-04T15:30:11.254Z,3.25
2022-08-04T15:32:46.845Z,3.40
2022-08-04T15:35:38.795Z,3.90
2022-08-04T15:38:27.836Z,2.83
2022-08-04T15:41:12.770Z,3.22
2022-08-04T15:44:25.857Z,3.15
2022-08-04T15:47:15.078Z,3.70
2022-08-04T15:49:47.212Z,3.50
2022-08-04T15:52:21.728Z,3.55
2022-08-04T15:55:12.351Z,3.75
2022-08-04T15:58:03.679Z,3.72
2022-08-04T16:00:57.866Z,4.03
2022-08-04T16:04:00.563Z,4.20
2022-08-04T16:06:31.466Z,3.30
2022-08-04T16:09:02.491Z,3.95
2022-08-04T16:14:05.133Z,3.95
2022-08-04T16:16:47.198Z,3.78
2022-08-04T16:19:22.778Z,4.28
2022-08-04T16:21:56.307Z,4.28
2022-08-04T16:24:33.595Z,4.75
2022-08-04T16:27:14.628Z,4.50
2022-08-04T16:29:46.666Z,4.25
2022-08-04T16:32:18.970Z,4.10
2022-08-04T16:34:56.265Z,4.05
2022-08-04T16:37:40.614Z,4.35
2022-08-04T16:40:46.617Z,3.70
2022-08-04T16:43:23.026Z,3.80
2022-08-04T16:45:57.328Z,4.72
2022-08-04T16:48:36.856Z,3.92
2022-08-04T16:51:09.380Z,4.18
2022-08-04T16:53:59.191Z,4.20
2022-08-04T16:56:36.656Z,4.30
2022-08-04T16:59:12.299Z,4.25
2022-08-04T17:01:50.041Z,4.05
2022-08-04T17:04:20.690Z,4.57
2022-08-04T17:06:51.456Z,4.53
2022-08-04T17:09:26.885Z,3.70
2022-08-04T17:12:00.101Z,4.00
2022-08-04T17:17:04.235Z,4.57
2022-08-04T17:19:39.764Z,5.18
2022-08-04T17:22:11.530Z,4.35
2022-08-04T17:24:42.860Z,4.30
2022-08-04T17:28:20.141Z,4.60
2022-08-04T17:30:04.422Z,3.70
2022-08-04T17:32:35.525Z,4.47
2022-08-04T17:35:11.353Z,3.95
2022-08-04T17:37:53.173Z,4.28
2022-08-04T17:40:25.972Z,4.03
2022-08-04T17:44:04.923Z,4.40
2022-08-04T17:49:18.520Z,4.50
2022-08-04T17:52:04.199Z,4.25
2022-08-04T17:54:43.399Z,5.00
2022-08-04T17:57:21.596Z,3.58
2022-08-04T17:59:59.329Z,3.97
2022-08-04T18:02:34.842Z,4.47
2022-08-04T18:05:11.320Z,4.35
2022-08-04T18:08:37.720Z,3.78
2022-08-04T18:10:55.147Z,4.35
2022-08-04T18:13:42.932Z,4.20
2022-08-04T18:16:22.550Z,4.00
2022-08-04T18:19:13.655Z,4.00
2022-08-04T18:21:46.429Z,3.78
2022-08-04T18:24:55.645Z,4.20
2022-08-04T18:27:29.898Z,3.90
2022-08-04T18:30:34.632Z,4.80
2022-08-04T18:33:24.531Z,5.43
2022-08-04T18:36:33.427Z,4.57
2022-08-04T18:38:32.520Z,4.90
2022-08-04T18:41:02.780Z,4.90
2022-08-04T18:43:41.040Z,4.97
2022-08-04T18:46:15.110Z,4.88
2022-08-04T18:48:52.405Z,4.35
2022-08-04T18:51:24.938Z,4.03
2022-08-04T18:54:01.440Z,4.07
2022-08-04T18:56:34.143Z,4.75
2022-08-04T18:59:10.225Z,4.28
2022-08-04T19:02:12.382Z,4.50
2022-08-04T19:04:36.750Z,4.30
2022-08-04T19:07:29.207Z,5.40
2022-08-04T19:09:59.882Z,4.95
2022-08-04T19:12:30.602Z,4.93
2022-08-04T19:15:10.630Z,4.90
2022-08-04T19:17:54.261Z,5.05
2022-08-04T19:20:31.450Z,5.55
2022-08-04T19:24:10.272Z,5.43
2022-08-04T19:26:01.196Z,4.90
2022-08-04T19:28:40.023Z,4.65
2022-08-04T19:31:11.781Z,4.82
2022-08-04T19:36:38.551Z,5.53
2022-08-04T19:39:16.490Z,4.38
2022-08-04T19:42:06.055Z,5.40
2022-08-04T19:44:37.002Z,4.30
2022-08-04T19:48:16.474Z,5.00
2022-08-04T19:50:10.554Z,5.35
2022-08-04T19:52:51.587Z,5.22
2022-08-04T19:55:37.178Z,4.73
2022-08-04T19:58:10.232Z,4.78
2022-08-04T20:00:44.825Z,5.07
2022-08-04T20:03:21.982Z,4.85
2022-08-04T20:05:55.302Z,4.50
2022-08-04T20:08:32.639Z,4.93
2022-08-04T20:11:03.106Z,4.97
2022-08-04T20:13:37.679Z,4.72
2022-08-04T20:16:30.449Z,5.10
2022-08-04T20:19:04.118Z,4.72
2022-08-04T20:21:56.180Z,4.50
2022-08-04T20:24:37.648Z,4.65
2022-08-04T20:27:16.237Z,5.25
2022-08-04T20:29:49.902Z,5.03
2022-08-04T20:32:26.211Z,4.88
2022-08-04T20:34:58.577Z,6.72
2022-08-04T20:37:54.785Z,5.80
2022-08-04T20:42:53.542Z,5.32
2022-08-04T20:45:24.171Z,4.32
2022-08-04T20:48:14.425Z,6.80
2022-08-04T20:50:51.683Z,5.38
2022-08-04T20:53:21.884Z,5.28
2022-08-04T20:56:12.070Z,5.72
2022-08-04T20:58:49.774Z,5.40
2022-08-04T21:01:20.096Z,5.38
2022-08-04T21:04:28.209Z,5.15
2022-08-04T21:06:59.914Z,5.32
2022-08-04T21:09:37.859Z,5.80
2022-08-04T21:12:27.463Z,5.15
2022-08-04T21:15:13.311Z,5.07
2022-08-04T21:17:59.597Z,5.13
2022-08-04T21:20:39.496Z,4.85
2022-08-04T21:23:12.949Z,6.03
2022-08-04T21:25:43.786Z,5.05
2022-08-04T21:28:20.284Z,5.38
2022-08-04T21:30:54.919Z,5.18
2022-08-04T21:36:21.014Z,6.75
2022-08-04T21:38:52.501Z,5.45
2022-08-04T21:41:24.622Z,6.20
2022-08-04T21:43:59.096Z,5.13
2022-08-04T21:46:32.047Z,5.05
2022-08-04T21:49:04.414Z,5.40
2022-08-04T21:51:59.350Z,5.68
2022-08-04T21:54:31.279Z,5.60
2022-08-04T21:57:03.422Z,5.40
2022-08-04T21:59:33.971Z,5.25
2022-08-04T22:02:17.309Z,5.53
2022-08-04T22:04:48.369Z,5.88
2022-08-04T22:07:22.995Z,5.05
2022-08-04T22:10:00.339Z,4.63
2022-08-04T22:12:34.120Z,5.00
2022-08-04T22:16:04.032Z,5.43
2022-08-04T22:20:28.353Z,6.10
2022-08-04T22:23:15.723Z,5.85
2022-08-04T22:25:55.755Z,5.90
2022-08-04T22:28:28.978Z,6.00
2022-08-04T22:30:59.907Z,5.68
2022-08-04T22:33:55.298Z,5.60
2022-08-04T22:36:26.972Z,5.43
2022-08-04T22:39:06.577Z,6.10
2022-08-04T22:42:03.098Z,6.10
2022-08-04T22:44:33.076Z,4.95
2022-08-04T22:47:06.737Z,5.45
2022-08-04T22:49:39.895Z,5.50
2022-08-04T22:52:17.009Z,5.60
2022-08-04T22:54:57.418Z,4.93
2022-08-04T22:57:43.373Z,5.50
2022-08-04T23:00:28.661Z,5.60
2022-08-04T23:02:59.627Z,5.40
